Time;durP1;ratioP1;P1;durP2;ratioP2;P2;SDS_P1;SDS_P2;PMS_P1;PMS_P2;Temp;Humidity;BMP_temperature;BMP_pressure;BME280_temperature;BME280_humidity;BME280_pressure;Samples;Min_cycle;Max_cycle;Signal;HPM_P1;HPM_P2
2022/10/25 00:01:42;;;;;;;;;0.50;0.50;;;;;14.46;79.49;99525.00;5095384;28;8930;-59
2022/10/25 00:04:10;;;;;;;;;1.00;1.00;;;;;14.49;79.75;99521.16;5096209;28;8822;-62
2022/10/25 00:06:38;;;;;;;;;0.75;0.75;;;;;14.52;79.50;99516.34;5096631;28;9551;-61
2022/10/25 00:09:06;;;;;;;;;0.40;0.40;;;;;14.52;80.07;99519.03;5097371;28;8818;-60
2022/10/25 00:11:34;;;;;;;;;0.00;0.00;;;;;14.52;79.88;99520.84;5096226;28;8830;-59
2022/10/25 00:14:02;;;;;;;;;1.00;1.00;;;;;14.43;80.42;99519.09;5096473;28;8904;-59
2022/10/25 00:16:29;;;;;;;;;3.00;0.40;;;;;14.33;80.44;99516.53;5096663;28;8850;-62
2022/10/25 00:18:57;;;;;;;;;2.50;1.00;;;;;14.29;81.11;99519.66;5096915;28;8818;-61
2022/10/25 00:21:25;;;;;;;;;3.00;2.60;;;;;14.25;81.13;99518.28;5096165;28;8876;-61
2022/10/25 00:23:52;;;;;;;;;0.75;0.75;;;;;14.20;80.92;99516.06;5096282;28;8918;-60
2022/10/25 00:26:20;;;;;;;;;0.40;0.40;;;;;14.19;81.17;99526.97;5095773;28;8830;-60
2022/10/25 00:28:48;;;;;;;;;0.00;0.00;;;;;14.19;81.15;99526.97;5095699;28;8899;-60
2022/10/25 00:31:15;;;;;;;;;1.00;1.00;;;;;14.18;81.48;99520.75;5095960;28;8826;-60
2022/10/25 00:33:43;;;;;;;;;0.25;0.25;;;;;14.19;81.45;99524.28;5096299;28;8912;-61
2022/10/25 00:36:11;;;;;;;;;1.00;1.00;;;;;14.22;81.08;99522.13;5096581;28;8914;-61
2022/10/25 00:38:38;;;;;;;;;1.00;1.00;;;;;14.25;80.58;99519.13;5096173;28;8810;-61
2022/10/25 00:41:06;;;;;;;;;1.00;0.40;;;;;14.29;81.13;99522.34;5096252;28;8826;-60
2022/10/25 00:43:34;;;;;;;;;0.80;0.40;;;;;14.33;80.84;99529.91;5096490;28;8838;-61
2022/10/25 00:46:02;;;;;;;;;3.00;1.00;;;;;14.37;81.43;99528.63;5096041;28;8840;-60
2022/10/25 00:48:29;;;;;;;;;0.60;0.60;;;;;14.43;80.54;99529.81;5095895;28;8822;-61
2022/10/25 00:50:57;;;;;;;;;0.20;0.20;;;;;14.46;80.80;99533.03;5095658;28;8907;-60
2022/10/25 00:53:25;;;;;;;;;0.25;0.25;;;;;14.53;80.42;99535.91;5095549;28;8822;-60
2022/10/25 00:55:53;;;;;;;;;1.00;1.00;;;;;14.55;80.24;99534.78;5095947;28;8822;-61
2022/10/25 00:58:20;;;;;;;;;1.00;1.00;;;;;14.61;79.99;99533.28;5095301;28;9005;-61
2022/10/25 01:00:48;;;;;;;;;3.00;3.00;;;;;14.63;80.45;99542.03;5095215;28;8927;-60
2022/10/25 01:03:16;;;;;;;;;0.40;0.40;;;;;14.68;80.48;99539.69;5095237;28;8825;-60
2022/10/25 01:05:43;;;;;;;;;0.60;0.60;;;;;14.70;80.03;99532.34;5095381;28;8850;-60
2022/10/25 01:08:11;;;;;;;;;2.20;2.20;;;;;14.72;80.29;99544.59;5094397;28;8810;-61
2022/10/25 01:10:39;;;;;;;;;3.00;1.00;;;;;14.74;80.17;99544.44;5094951;28;8838;-61
2022/10/25 01:13:06;;;;;;;;;1.00;1.00;;;;;14.76;79.61;99531.72;5094789;28;8833;-59
2022/10/25 01:15:35;;;;;;;;;1.00;0.80;;;;;14.78;79.62;99540.44;5094658;28;8826;-61
2022/10/25 01:18:02;;;;;;;;;2.80;2.80;;;;;14.80;79.78;99544.63;5095051;28;8830;-60
2022/10/25 01:20:30;;;;;;;;;1.00;1.00;;;;;14.80;79.41;99552.69;5095560;28;9496;-61
2022/10/25 01:22:58;;;;;;;;;3.60;3.00;;;;;14.82;79.98;99537.31;5095455;28;8887;-60
2022/10/25 01:25:25;;;;;;;;;0.60;0.60;;;;;14.84;80.31;99540.66;5095344;28;8907;-61
2022/10/25 01:27:53;;;;;;;;;1.00;1.00;;;;;14.86;79.33;99545.88;5095656;28;8932;-60
2022/10/25 01:30:20;;;;;;;;;1.00;1.00;;;;;14.87;80.17;99544.88;5075376;28;8835;-59
2022/10/25 01:32:48;;;;;;;;;1.00;1.00;;;;;14.89;80.11;99542.84;5075206;28;8824;-61
2022/10/25 01:35:16;;;;;;;;;1.00;1.00;;;;;14.90;79.63;99549.91;5075756;28;8836;-61
2022/10/25 01:37:44;;;;;;;;;1.00;1.00;;;;;14.90;79.85;99549.91;5076175;28;8843;-62
2022/10/25 01:40:12;;;;;;;;;2.20;2.20;;;;;14.90;79.54;99549.91;5098240;28;8814;-60
2022/10/25 01:42:39;;;;;;;;;2.00;2.00;;;;;14.88;80.22;99562.63;5099784;28;9616;-62
2022/10/25 01:45:07;;;;;;;;;0.00;0.00;;;;;14.89;79.94;99549.06;5099345;28;8826;-60
2022/10/25 01:47:35;;;;;;;;;1.00;1.00;;;;;14.90;80.23;99561.47;5099508;28;8898;-61
2022/10/25 01:50:03;;;;;;;;;1.00;1.00;;;;;14.91;80.14;99560.47;5099178;28;8891;-60
2022/10/25 01:52:30;;;;;;;;;1.00;1.00;;;;;14.92;80.27;99558.63;5099647;28;8833;-59
2022/10/25 01:54:58;;;;;;;;;1.40;1.40;;;;;14.93;79.91;99557.63;5099290;28;8845;-60
2022/10/25 01:57:25;;;;;;;;;1.00;0.60;;;;;14.91;79.42;99554.25;5099147;28;8929;-60
2022/10/25 01:59:53;;;;;;;;;0.40;0.40;;;;;14.85;80.17;99565.59;5099006;28;9534;-62
2022/10/25 02:02:21;;;;;;;;;0.80;0.80;;;;;14.79;80.04;99561.72;5098722;28;8822;-60
2022/10/25 02:04:48;;;;;;;;;1.00;1.00;;;;;14.79;79.64;99564.41;5098863;28;8829;-61
2022/10/25 02:07:16;;;;;;;;;3.00;1.80;;;;;14.83;79.64;99571.16;5098928;28;8918;-60
2022/10/25 02:09:44;;;;;;;;;0.20;0.20;;;;;14.85;80.16;99568.28;5099097;28;9468;-59
2022/10/25 02:12:12;;;;;;;;;1.00;1.00;;;;;14.83;79.80;99567.63;5098564;28;8888;-60
2022/10/25 02:14:39;;;;;;;;;0.60;0.60;;;;;14.83;79.77;99570.28;5098988;28;8830;-61
2022/10/25 02:17:07;;;;;;;;;1.00;1.00;;;;;14.83;80.03;99559.56;5099075;28;8903;-60
2022/10/25 02:19:34;;;;;;;;;1.00;1.00;;;;;14.83;79.87;99564.94;5098613;28;8823;-60
2022/10/25 02:22:03;;;;;;;;;3.00;1.80;;;;;14.79;79.71;99563.59;5098752;28;8846;-60
2022/10/25 02:24:32;;;;;;;;;1.00;1.00;;;;;14.72;79.94;99565.22;5099248;28;8926;-60
2022/10/25 02:26:59;;;;;;;;;1.00;1.00;;;;;14.67;80.04;99573.72;5099278;28;8842;-60
2022/10/25 02:29:27;;;;;;;;;2.20;2.20;;;;;14.62;80.47;99567.97;5098392;28;8836;-60
2022/10/25 02:31:54;;;;;;;;;3.00;1.40;;;;;14.58;80.19;99565.78;5099122;28;8874;-60
2022/10/25 02:34:22;;;;;;;;;1.00;1.00;;;;;14.55;80.43;99566.94;5098642;28;8891;-60
2022/10/25 02:36:50;;;;;;;;;0.60;0.00;;;;;14.57;80.43;99572.13;5098596;28;8830;-61
2022/10/25 02:39:18;;;;;;;;;1.80;1.00;;;;;14.60;80.43;99572.66;5097893;28;8830;-61
2022/10/25 02:41:45;;;;;;;;;2.20;1.00;;;;;14.64;80.16;99575.88;5097893;28;8846;-60
2022/10/25 02:44:13;;;;;;;;;0.00;0.00;;;;;14.69;79.85;99577.09;5098463;28;8903;-61
2022/10/25 02:46:41;;;;;;;;;0.60;0.60;;;;;14.71;79.98;99582.28;5097103;28;8825;-60
2022/10/25 02:49:09;;;;;;;;;1.00;1.00;;;;;14.73;79.93;99578.44;5098050;28;8914;-60
2022/10/25 02:51:36;;;;;;;;;0.40;0.40;;;;;14.74;79.65;99577.47;5098582;28;8830;-60
2022/10/25 02:54:04;;;;;;;;;1.00;1.00;;;;;14.76;79.43;99574.59;5098271;28;8844;-61
2022/10/25 02:56:31;;;;;;;;;0.60;0.60;;;;;14.76;79.63;99583.50;5098379;28;8838;-60
2022/10/25 02:58:59;;;;;;;;;0.20;0.20;;;;;14.80;79.67;99576.00;5097631;28;8886;-61
2022/10/25 03:01:27;;;;;;;;;0.00;0.00;;;;;14.82;79.66;99579.34;5098007;28;8822;-60
2022/10/25 03:03:55;;;;;;;;;2.40;2.40;;;;;14.82;79.85;99577.50;5098198;28;8826;-60
2022/10/25 03:06:23;;;;;;;;;0.60;0.00;;;;;14.84;80.06;99582.69;5098161;28;8924;-61
2022/10/25 03:08:50;;;;;;;;;1.00;1.00;;;;;14.84;79.63;99582.69;5097982;28;9074;-61
2022/10/25 03:11:18;;;;;;;;;0.00;0.00;;;;;14.85;79.82;99579.88;5098020;28;8822;-60
2022/10/25 03:13:46;;;;;;;;;1.00;1.00;;;;;14.85;79.19;99593.28;5098438;28;9663;-60
2022/10/25 03:16:13;;;;;;;;;0.00;0.00;;;;;14.86;79.42;99588.78;5098503;28;8968;-61
2022/10/25 03:18:41;;;;;;;;;1.40;1.40;;;;;14.86;79.12;99596.81;5097670;28;8894;-60
2022/10/25 03:21:08;;;;;;;;;0.00;0.00;;;;;14.87;78.89;99585.09;5097724;28;8806;-61
2022/10/25 03:23:36;;;;;;;;;2.20;1.80;;;;;14.87;79.60;99593.13;5097724;28;8906;-60
2022/10/25 03:26:04;;;;;;;;;0.20;0.00;;;;;14.88;78.96;99592.13;5097966;28;9476;-61
2022/10/25 03:28:32;;;;;;;;;1.00;1.00;;;;;14.90;79.46;99590.13;5097701;28;8854;-60
2022/10/25 03:30:59;;;;;;;;;1.00;1.00;;;;;14.87;79.11;99598.50;5097813;28;8912;-60
2022/10/25 03:33:27;;;;;;;;;1.00;1.00;;;;;14.74;79.78;99596.22;5097344;28;8814;-60
2022/10/25 03:35:55;;;;;;;;;2.00;1.00;;;;;14.63;79.86;99593.78;5097402;28;8830;-60
2022/10/25 03:38:23;;;;;;;;;0.00;0.00;;;;;14.53;79.99;99601.09;5097415;28;8814;-63
2022/10/25 03:40:50;;;;;;;;;0.00;0.00;;;;;14.45;80.86;99605.53;5097583;28;8910;-61
2022/10/25 03:43:18;;;;;;;;;0.00;0.00;;;;;14.38;81.02;99609.81;5097391;28;8821;-60
2022/10/25 03:45:45;;;;;;;;;0.80;0.80;;;;;14.34;80.77;99603.09;5097107;28;8929;-60
2022/10/25 03:48:14;;;;;;;;;2.50;2.50;;;;;14.31;80.52;99608.75;5097044;28;9502;-60
2022/10/25 03:50:42;;;;;;;;;1.00;1.00;;;;;14.28;81.02;99607.19;5096994;28;8842;-60
2022/10/25 03:53:10;;;;;;;;;3.00;2.00;;;;;14.28;80.50;99611.75;5096685;28;8806;-60
2022/10/25 03:55:37;;;;;;;;;1.00;1.00;;;;;14.28;81.23;99611.75;5096885;28;8930;-60
2022/10/25 03:58:05;;;;;;;;;1.00;1.00;;;;;14.30;80.75;99620.47;5096437;28;8842;-60
2022/10/25 04:00:33;;;;;;;;;1.00;1.00;;;;;14.30;80.59;99612.41;5095764;28;8818;-60
2022/10/25 04:03:01;;;;;;;;;1.00;1.00;;;;;14.33;80.86;99623.66;5096836;28;8862;-60
2022/10/25 04:05:29;;;;;;;;;3.00;1.00;;;;;14.28;80.35;99617.91;5096805;28;9507;-60
2022/10/25 04:07:56;;;;;;;;;1.50;1.00;;;;;14.22;80.62;99617.69;5096500;28;8830;-60
2022/10/25 04:10:24;;;;;;;;;0.75;0.75;;;;;14.18;81.36;99619.03;5096469;28;8817;-60
2022/10/25 04:12:52;;;;;;;;;1.00;1.00;;;;;14.13;81.04;99614.06;5096793;28;8818;-60
2022/10/25 04:15:21;;;;;;;;;3.25;2.00;;;;;14.11;81.36;99621.41;5096421;28;8834;-60
2022/10/25 04:17:49;;;;;;;;;0.25;0.25;;;;;14.09;81.45;99628.75;5096068;28;8833;-60
2022/10/25 04:20:16;;;;;;;;;2.50;2.50;;;;;14.08;81.30;99621.72;5079774;28;8814;-60
2022/10/25 04:22:44;;;;;;;;;1.00;1.00;;;;;14.08;81.33;99624.41;5096727;28;8924;-60
2022/10/25 04:25:12;;;;;;;;;1.50;1.50;;;;;14.08;81.11;99620.88;5096490;28;8849;-62
2022/10/25 04:27:40;;;;;;;;;3.25;2.50;;;;;14.09;81.31;99630.59;5096443;28;8845;-61
2022/10/25 04:30:07;;;;;;;;;1.00;1.00;;;;;14.08;81.31;99629.75;5096340;28;8822;-61
2022/10/25 04:32:35;;;;;;;;;3.00;3.00;;;;;14.11;81.74;99631.28;5096374;28;8871;-62
2022/10/25 04:35:03;;;;;;;;;1.00;1.00;;;;;14.15;81.88;99640.69;5096038;28;8838;-61
2022/10/25 04:37:30;;;;;;;;;3.00;3.00;;;;;14.20;80.85;99633.91;5095639;28;8833;-60
2022/10/25 04:39:58;;;;;;;;;1.00;1.00;;;;;14.24;81.42;99635.31;5096091;28;8806;-63
2022/10/25 04:42:26;;;;;;;;;4.00;4.00;;;;;14.27;81.39;99640.34;5095731;28;8854;-60
2022/10/25 04:44:53;;;;;;;;;1.00;1.00;;;;;14.30;80.57;99644.56;5095714;28;8822;-63
2022/10/25 04:47:21;;;;;;;;;3.00;3.00;;;;;14.33;80.66;99641.59;5095149;28;8830;-63
2022/10/25 04:49:49;;;;;;;;;3.00;3.00;;;;;14.32;81.00;99639.88;5094911;28;8838;-60
2022/10/25 04:52:18;;;;;;;;;4.50;3.25;;;;;14.33;80.77;99646.97;5095332;28;8825;-60
2022/10/25 04:54:45;;;;;;;;;4.00;4.00;;;;;14.33;80.59;99653.13;5095157;28;8830;-60
2022/10/25 04:57:13;;;;;;;;;1.00;0.80;;;;;14.31;80.91;99649.78;5095392;28;8842;-60
2022/10/25 04:59:41;;;;;;;;;1.50;1.00;;;;;14.31;81.13;99651.59;5095263;28;8829;-61
2022/10/25 05:02:09;;;;;;;;;3.00;3.00;;;;;14.31;80.98;99652.47;5094731;28;8906;-62
2022/10/25 05:04:36;;;;;;;;;3.50;3.25;;;;;14.30;80.77;99660.63;5094635;28;8837;-61
2022/10/25 05:07:04;;;;;;;;;3.25;3.00;;;;;14.31;80.64;99655.13;5094686;28;8833;-62
2022/10/25 05:09:31;;;;;;;;;0.00;0.00;;;;;14.34;81.14;99659.34;5094507;28;9237;-60
2022/10/25 05:11:59;;;;;;;;;1.50;1.50;;;;;14.36;80.67;99662.72;5093455;28;8830;-60
2022/10/25 05:14:27;;;;;;;;;1.00;1.00;;;;;14.38;80.75;99660.72;5093528;28;8826;-62
2022/10/25 05:16:55;;;;;;;;;2.75;2.25;;;;;14.41;80.74;99661.25;5093776;28;8883;-61
2022/10/25 05:19:22;;;;;;;;;1.00;1.00;;;;;14.43;80.86;99658.44;5093841;28;8826;-62
2022/10/25 05:21:50;;;;;;;;;1.00;1.00;;;;;14.43;80.27;99663.78;5092714;28;9630;-60
2022/10/25 05:24:17;;;;;;;;;1.00;1.00;;;;;14.44;80.31;99666.31;5092473;28;8826;-61
2022/10/25 05:26:45;;;;;;;;;3.00;3.00;;;;;14.45;80.91;99665.31;5092139;28;8911;-60
2022/10/25 05:29:13;;;;;;;;;2.00;1.00;;;;;14.46;80.80;99666.16;5091634;28;8830;-60
2022/10/25 05:31:41;;;;;;;;;1.00;1.00;;;;;14.46;80.13;99658.97;5090604;28;8873;-61
2022/10/25 05:34:08;;;;;;;;;1.00;1.00;;;;;14.46;80.53;99667.00;5092880;28;8858;-62
2022/10/25 05:36:36;;;;;;;;;3.00;3.00;;;;;14.46;80.16;99667.00;5093006;28;8822;-61
2022/10/25 05:39:05;;;;;;;;;1.00;1.00;;;;;14.46;80.46;99674.19;5092418;28;8914;-60
2022/10/25 05:41:33;;;;;;;;;2.50;1.50;;;;;14.46;80.74;99682.22;5091648;28;8822;-60
2022/10/25 05:44:03;;;;;;;;;0.80;0.80;;;;;14.46;80.56;99680.41;5091729;28;8946;-60
2022/10/25 05:46:31;;;;;;;;;3.00;1.00;;;;;14.48;80.85;99688.28;5091384;28;8826;-61
2022/10/25 05:49:00;;;;;;;;;2.00;2.00;;;;;14.47;80.37;99681.22;5091546;28;8857;-61
2022/10/25 05:51:28;;;;;;;;;1.00;1.00;;;;;14.48;80.50;99688.28;5091402;28;8822;-61
2022/10/25 05:54:03;;;;;;;;;0.60;0.60;;;;;14.48;80.04;99689.13;5091102;28;8864;-60
2022/10/25 05:56:31;;;;;;;;;1.50;1.50;;;;;14.49;80.50;99679.25;5091623;28;8822;-60
2022/10/25 05:58:58;;;;;;;;;1.00;0.00;;;;;14.48;80.47;99683.75;5091102;28;8955;-61
2022/10/25 06:01:26;;;;;;;;;2.00;2.00;;;;;14.46;80.54;99690.25;5091368;28;8845;-60
2022/10/25 06:03:54;;;;;;;;;3.00;3.00;;;;;14.45;80.80;99694.78;5091640;28;8826;-60
2022/10/25 06:06:22;;;;;;;;;3.00;3.00;;;;;14.45;80.88;99708.19;5091936;28;8841;-61
2022/10/25 06:08:50;;;;;;;;;1.40;1.40;;;;;14.45;80.42;99707.34;5092077;28;8842;-60
2022/10/25 06:11:17;;;;;;;;;1.00;1.00;;;;;14.46;80.54;99712.56;5092024;28;8882;-60
2022/10/25 06:13:45;;;;;;;;;3.00;3.00;;;;;14.47;80.67;99710.69;5091828;28;8842;-60
2022/10/25 06:16:13;;;;;;;;;3.00;3.00;;;;;14.48;80.81;99715.09;5091343;28;8916;-60
2022/10/25 06:18:41;;;;;;;;;3.50;3.50;;;;;14.48;80.56;99720.44;5091380;28;8864;-60
2022/10/25 06:21:08;;;;;;;;;3.75;3.00;;;;;14.48;79.96;99718.59;5091391;28;8914;-61
2022/10/25 06:23:36;;;;;;;;;3.25;3.00;;;;;14.41;80.59;99722.03;5092478;28;8838;-60
2022/10/25 06:26:04;;;;;;;;;3.25;3.00;;;;;14.34;81.54;99723.66;5096194;28;9199;-62
2022/10/25 06:28:32;;;;;;;;;2.50;2.50;;;;;14.30;81.21;99719.56;5095063;28;8873;-62
2022/10/25 06:31:00;;;;;;;;;2.50;1.00;;;;;14.29;81.39;99721.41;5094398;28;8912;-60
2022/10/25 06:33:27;;;;;;;;;2.00;1.50;;;;;14.32;80.68;99733.66;5093667;28;8833;-62
2022/10/25 06:35:55;;;;;;;;;2.50;2.50;;;;;14.34;81.25;99737.03;5093284;28;8838;-61
2022/10/25 06:38:23;;;;;;;;;3.00;3.00;;;;;14.36;81.26;99743.09;5093106;28;8948;-60
2022/10/25 06:40:51;;;;;;;;;3.00;3.00;;;;;14.39;80.63;99748.13;5093542;28;8833;-61
2022/10/25 06:43:19;;;;;;;;;3.25;3.00;;;;;14.41;81.00;99754.19;5093766;28;8846;-61
2022/10/25 06:45:46;;;;;;;;;3.25;3.00;;;;;14.43;80.07;99760.25;5094526;28;8834;-62
2022/10/25 06:48:14;;;;;;;;;4.00;3.50;;;;;14.45;80.80;99755.56;5094877;28;8833;-62
2022/10/25 06:50:42;;;;;;;;;1.00;1.00;;;;;14.45;80.58;99767.13;5095318;28;8854;-62
2022/10/25 06:53:10;;;;;;;;;4.00;2.75;;;;;14.46;80.63;99770.66;5095694;28;8877;-62
2022/10/25 06:55:38;;;;;;;;;3.00;2.50;;;;;14.47;80.58;99773.19;5095084;28;9224;-62
2022/10/25 06:58:06;;;;;;;;;2.00;2.00;;;;;14.48;80.33;99784.75;5095762;28;8883;-62
2022/10/25 07:00:33;;;;;;;;;0.75;0.75;;;;;14.50;80.55;99788.13;5095670;28;8923;-63
2022/10/25 07:03:01;;;;;;;;;3.50;3.50;;;;;14.51;80.59;99779.09;5095072;28;8838;-61
2022/10/25 07:05:29;;;;;;;;;3.00;3.00;;;;;14.53;80.39;99787.81;5094235;28;8872;-63
2022/10/25 07:07:57;;;;;;;;;3.00;3.00;;;;;14.54;80.38;99790.34;5095474;28;8914;-60
2022/10/25 07:10:25;;;;;;;;;3.00;3.00;;;;;14.56;80.56;99790.22;5095497;28;8895;-62
2022/10/25 07:12:52;;;;;;;;;3.00;3.00;;;;;14.57;80.21;99795.41;5095254;28;8829;-62
2022/10/25 07:15:22;;;;;;;;;3.80;3.00;;;;;14.58;79.95;99791.72;5094648;28;8833;-62
2022/10/25 07:17:50;;;;;;;;;4.00;3.50;;;;;14.59;80.51;99792.56;5094719;28;8866;-62
2022/10/25 07:20:18;;;;;;;;;1.40;1.40;;;;;14.55;81.03;99807.25;5094210;28;9179;-62
2022/10/25 07:22:46;;;;;;;;;4.00;4.00;;;;;14.49;80.64;99797.16;5094649;28;9144;-62
2022/10/25 07:25:14;;;;;;;;;3.50;3.00;;;;;14.45;80.88;99804.66;5093787;28;9204;-60
2022/10/25 07:27:42;;;;;;;;;3.00;3.00;;;;;14.45;80.90;99801.97;5092292;28;8992;-62
2022/10/25 07:30:11;;;;;;;;;3.75;3.25;;;;;14.49;80.12;99803.34;5092660;28;9289;-62
2022/10/25 07:32:39;;;;;;;;;4.00;4.00;;;;;14.54;80.07;99811.78;5093045;28;8845;-63
2022/10/25 07:35:09;;;;;;;;;3.00;3.00;;;;;14.61;80.35;99806.66;5093567;28;8834;-62
2022/10/25 07:37:36;;;;;;;;;3.00;3.00;;;;;14.68;80.01;99815.78;5093892;28;8842;-63
2022/10/25 07:40:04;;;;;;;;;3.25;3.00;;;;;14.72;79.65;99812.66;5094443;28;8849;-62
2022/10/25 07:42:32;;;;;;;;;4.00;3.00;;;;;14.75;79.78;99824.91;5093529;28;8857;-62
2022/10/25 07:45:00;;;;;;;;;6.00;4.50;;;;;14.78;79.49;99824.59;5093392;28;8814;-61
2022/10/25 07:47:28;;;;;;;;;3.00;2.00;;;;;14.83;80.13;99816.94;5093025;28;8841;-62
2022/10/25 07:49:56;;;;;;;;;6.50;5.75;;;;;14.90;79.65;99826.94;5092852;28;9582;-62
2022/10/25 07:52:24;;;;;;;;;4.00;4.00;;;;;15.05;79.09;99824.56;5092833;28;8848;-62
2022/10/25 07:54:52;;;;;;;;;3.80;3.00;;;;;15.17;79.47;99820.66;5093069;28;8869;-62
2022/10/25 07:57:20;;;;;;;;;4.40;3.40;;;;;15.25;79.04;99826.09;5091907;28;9539;-60
2022/10/25 07:59:47;;;;;;;;;5.20;5.20;;;;;15.32;78.95;99829.88;5093531;28;8837;-62
2022/10/25 08:02:15;;;;;;;;;4.50;4.50;;;;;15.36;78.98;99832.09;5094347;28;8838;-62
2022/10/25 08:04:43;;;;;;;;;5.50;4.50;;;;;15.39;78.87;99836.31;5094155;28;8845;-61
2022/10/25 08:07:11;;;;;;;;;4.00;4.00;;;;;15.41;78.39;99840.50;5093628;28;8927;-60
2022/10/25 08:09:39;;;;;;;;;4.00;3.50;;;;;15.43;78.83;99835.84;5093174;28;8833;-61
2022/10/25 08:12:07;;;;;;;;;3.80;3.00;;;;;15.40;78.32;99844.19;5092284;28;9522;-60
2022/10/25 08:14:34;;;;;;;;;3.80;3.80;;;;;15.39;78.75;99844.38;5091955;28;8842;-61
2022/10/25 08:17:07;;;;;;;;;3.00;3.00;;;;;15.38;78.82;99835.47;5091147;28;8829;-62
2022/10/25 08:19:35;;;;;;;;;3.80;3.00;;;;;15.40;78.46;99844.19;5091989;28;8879;-62
2022/10/25 08:22:03;;;;;;;;;4.00;3.60;;;;;15.46;79.01;99832.00;5091365;28;8844;-60
2022/10/25 08:24:33;;;;;;;;;4.00;3.00;;;;;15.51;78.60;99832.38;5091722;28;9724;-61
2022/10/25 08:27:01;;;;;;;;;3.00;2.20;;;;;15.56;78.60;99832.75;5092331;28;8842;-61
2022/10/25 08:29:29;;;;;;;;;4.00;4.00;;;;;15.63;78.58;99839.19;5092591;28;8880;-60
2022/10/25 08:31:58;;;;;;;;;3.80;3.80;;;;;15.67;78.25;99838.72;5093698;28;8818;-60
2022/10/25 08:34:26;;;;;;;;;6.00;6.00;;;;;15.71;78.21;99839.25;5094092;28;8825;-61
2022/10/25 08:36:58;;;;;;;;;1.00;1.00;;;;;15.76;77.87;99836.94;5093243;28;8881;-61
2022/10/25 08:39:26;;;;;;;;;1.40;1.40;;;;;15.82;77.67;99838.97;5093636;28;8854;-62
2022/10/25 08:41:54;;;;;;;;;5.20;4.00;;;;;15.83;77.67;99840.66;5091835;28;8838;-60
2022/10/25 08:44:22;;;;;;;;;3.60;3.00;;;;;15.83;78.07;99843.34;5089793;28;8833;-62
2022/10/25 08:46:50;;;;;;;;;3.00;3.00;;;;;15.81;77.90;99837.28;5089832;28;9546;-60
2022/10/25 08:49:18;;;;;;;;;4.00;3.80;;;;;15.82;77.91;99833.59;5090305;28;8852;-61
2022/10/25 08:51:46;;;;;;;;;3.60;3.60;;;;;15.86;77.64;99835.81;5090980;28;8849;-62
2022/10/25 08:54:14;;;;;;;;;3.00;3.00;;;;;15.96;77.34;99841.06;5091081;28;8814;-60
2022/10/25 08:56:42;;;;;;;;;4.00;3.80;;;;;16.10;77.02;99846.72;5090536;28;8940;-60
2022/10/25 08:59:30;;;;;;;;;3.60;3.00;;;;;16.20;76.71;99848.28;5092020;28;8947;-62
2022/10/25 09:01:57;;;;;;;;;3.60;3.60;;;;;16.26;76.98;99852.19;5092671;28;8845;-61
2022/10/25 09:04:25;;;;;;;;;3.20;3.20;;;;;16.24;76.39;99848.78;5090806;28;8976;-60
2022/10/25 09:06:53;;;;;;;;;5.60;4.00;;;;;16.19;76.72;99849.28;5091136;28;8950;-60
2022/10/25 09:09:23;;;;;;;;;3.00;3.00;;;;;16.15;77.37;99852.44;5092781;28;9495;-60
2022/10/25 09:11:51;;;;;;;;;4.80;4.80;;;;;16.16;76.45;99862.19;5091144;28;8868;-61
2022/10/25 09:14:19;;;;;;;;;3.80;3.80;;;;;16.20;77.27;99859.03;5090672;28;8912;-61
2022/10/25 09:16:47;;;;;;;;;2.60;2.60;;;;;16.23;76.57;99857.03;5091466;28;9514;-61
2022/10/25 09:19:15;;;;;;;;;3.80;3.00;;;;;16.15;76.57;99862.38;5091259;28;9548;-59
2022/10/25 09:21:43;;;;;;;;;3.00;2.60;;;;;16.03;77.01;99869.84;5091748;28;8848;-62
2022/10/25 09:24:11;;;;;;;;;3.60;3.40;;;;;15.95;77.39;99869.81;5091281;28;8907;-61
2022/10/25 09:26:39;;;;;;;;;1.00;1.00;;;;;15.95;77.74;99871.63;5092229;28;8846;-59
2022/10/25 09:29:07;;;;;;;;;4.00;3.40;;;;;16.06;77.61;99876.72;5092591;28;8838;-61
2022/10/25 09:31:35;;;;;;;;;3.40;3.00;;;;;16.17;76.75;99877.34;5092220;28;8838;-61
2022/10/25 09:34:03;;;;;;;;;6.00;4.80;;;;;16.22;76.82;99874.16;5092096;28;9588;-61
2022/10/25 09:36:32;;;;;;;;;6.40;5.60;;;;;16.27;76.27;99878.88;5092038;28;8864;-61
2022/10/25 09:38:59;;;;;;;;;3.40;2.60;;;;;16.31;76.66;99877.56;5092531;28;9566;-59
2022/10/25 09:41:27;;;;;;;;;2.20;2.20;;;;;16.44;75.95;99875.34;5092703;28;8852;-60
2022/10/25 09:43:55;;;;;;;;;3.80;3.80;;;;;16.61;75.51;99869.00;5092405;28;8822;-61
2022/10/25 09:46:23;;;;;;;;;3.60;3.60;;;;;16.80;75.00;99867.91;5091832;28;9551;-60
2022/10/25 09:48:51;;;;;;;;;3.60;3.00;;;;;16.95;75.04;99877.03;5092016;28;8838;-61
2022/10/25 09:51:19;;;;;;;;;3.00;3.00;;;;;17.05;74.48;99886.66;5091868;28;8837;-60
2022/10/25 09:53:47;;;;;;;;;2.80;2.60;;;;;17.13;74.28;99883.97;5091073;28;8840;-60
2022/10/25 09:56:16;;;;;;;;;1.80;1.20;;;;;17.67;73.03;99882.53;5090304;28;8848;-61
2022/10/25 09:58:45;;;;;;;;;3.40;3.40;;;;;18.13;71.45;99889.94;5091355;28;8846;-59
2022/10/25 10:01:13;;;;;;;;;3.20;3.00;;;;;18.13;71.53;99896.16;5094643;28;8833;-60
2022/10/25 10:03:41;;;;;;;;;3.00;3.00;;;;;18.09;72.14;99896.66;5093802;28;8931;-62
2022/10/25 10:06:13;;;;;;;;;3.80;3.40;;;;;18.05;72.14;99898.00;5093348;28;8834;-64
2022/10/25 10:08:41;;;;;;;;;1.40;1.40;;;;;18.11;71.86;99900.03;5093598;28;8845;-60
2022/10/25 10:11:09;;;;;;;;;1.00;1.00;;;;;18.52;71.34;99893.56;5094086;28;8852;-63
2022/10/25 10:13:37;;;;;;;;;4.00;3.00;;;;;18.72;70.77;99898.38;5093661;28;8923;-62
2022/10/25 10:16:05;;;;;;;;;4.00;3.00;;;;;18.64;70.93;99905.66;5093621;28;8842;-61
2022/10/25 10:18:33;;;;;;;;;3.40;3.40;;;;;18.22;71.36;99900.50;5094255;28;8952;-60
2022/10/25 10:21:01;;;;;;;;;4.00;4.00;;;;;18.21;72.09;99909.63;5092997;28;8960;-63
2022/10/25 10:23:30;;;;;;;;;3.00;3.00;;;;;18.31;71.24;99910.31;5094826;28;8822;-62
2022/10/25 10:25:58;;;;;;;;;6.20;6.00;;;;;18.73;70.64;99910.84;5093561;28;8830;-62
2022/10/25 10:28:25;;;;;;;;;3.00;3.00;;;;;19.09;69.73;99916.59;5090323;28;8889;-61
2022/10/25 10:30:53;;;;;;;;;3.40;3.00;;;;;19.13;70.18;99920.63;5091984;28;8850;-60
2022/10/25 10:33:21;;;;;;;;;1.40;1.40;;;;;18.99;69.97;99919.53;5092622;28;8849;-61
2022/10/25 10:35:49;;;;;;;;;3.80;3.80;;;;;18.83;70.49;99924.16;5091657;28;8961;-61
2022/10/25 10:38:17;;;;;;;;;4.00;4.00;;;;;18.62;70.68;99930.13;5091760;28;8904;-62
2022/10/25 10:40:45;;;;;;;;;3.60;3.60;;;;;18.28;71.60;99921.41;5092762;28;8834;-60
2022/10/25 10:43:18;;;;;;;;;3.60;3.00;;;;;18.05;72.21;99923.13;5095160;28;8826;-60
2022/10/25 10:45:45;;;;;;;;;4.00;4.00;;;;;17.98;72.67;99924.81;5094445;28;8834;-60
2022/10/25 10:48:14;;;;;;;;;3.00;3.00;;;;;17.96;72.31;99916.06;5093563;28;8916;-62
2022/10/25 10:50:42;;;;;;;;;3.00;3.00;;;;;18.09;72.42;99916.41;5093567;28;8822;-60
2022/10/25 10:53:13;;;;;;;;;3.40;3.40;;;;;18.28;71.30;99915.19;5093780;28;8901;-61
2022/10/25 10:55:41;;;;;;;;;4.00;4.00;;;;;18.35;71.17;99924.28;5093562;28;8846;-60
2022/10/25 10:58:09;;;;;;;;;4.40;3.00;;;;;18.27;71.58;99917.03;5093841;28;8999;-63
2022/10/25 11:00:37;;;;;;;;;3.60;3.60;;;;;18.23;71.62;99923.75;5094453;28;8852;-61
2022/10/25 11:03:06;;;;;;;;;5.80;4.00;;;;;18.39;71.24;99931.03;5091027;28;8826;-61
2022/10/25 11:05:33;;;;;;;;;3.00;3.00;;;;;18.49;70.53;99924.44;5091786;28;8845;-60
2022/10/25 11:08:01;;;;;;;;;6.00;4.00;;;;;18.46;70.94;99923.94;5092066;28;8842;-61
2022/10/25 11:10:29;;;;;;;;;1.00;1.00;;;;;18.57;70.72;99924.41;5093106;28;9492;-61
2022/10/25 11:12:58;;;;;;;;;3.40;3.40;;;;;18.64;70.22;99925.41;5092038;28;8834;-61
2022/10/25 11:15:28;;;;;;;;;5.60;4.80;;;;;18.66;69.82;99931.44;5091961;28;8838;-61
2022/10/25 11:17:58;;;;;;;;;3.00;3.00;;;;;18.61;70.33;99928.41;5092630;28;9480;-61
2022/10/25 11:20:26;;;;;;;;;3.20;3.20;;;;;18.53;70.84;99931.16;5091729;28;8973;-61
2022/10/25 11:22:54;;;;;;;;;3.40;3.40;;;;;18.47;70.59;99923.78;5092706;28;9574;-61
2022/10/25 11:25:25;;;;;;;;;3.40;3.40;;;;;18.54;70.95;99932.00;5090035;28;8829;-61
2022/10/25 11:27:53;;;;;;;;;4.80;3.80;;;;;18.59;70.68;99926.94;5088418;28;8872;-60
2022/10/25 11:30:21;;;;;;;;;3.80;3.80;;;;;18.61;70.64;99933.81;5089091;28;9215;-61
2022/10/25 11:32:49;;;;;;;;;3.80;3.80;;;;;18.61;70.61;99923.03;5088340;28;8834;-60
2022/10/25 11:35:18;;;;;;;;;6.60;6.20;;;;;18.56;70.69;99924.56;5090207;28;9330;-61
2022/10/25 11:37:46;;;;;;;;;7.00;6.60;;;;;18.57;70.88;99927.09;5089718;28;8972;-60
2022/10/25 11:40:14;;;;;;;;;3.20;2.20;;;;;18.62;70.77;99930.13;5088394;28;8845;-60
2022/10/25 11:42:42;;;;;;;;;1.00;0.40;;;;;18.73;70.35;99926.22;5086673;28;8834;-60
2022/10/25 11:45:11;;;;;;;;;2.60;2.60;;;;;18.86;69.38;99937.28;5088787;28;8884;-60